CheckWX is a tool to help pilots better visualize weather data.  It is not intended as a substitute for an official pre-flight weather briefing.

19:43:44 UTC

KIZG METAR
Eastern Slopes Regional Airport
Fryeburg, Maine, USA
Current

50 mins ago

KIZG 191854Z AUTO 17007KT 10SM BKN044 31/21 A2975 RMK AO2 SLP073 T03060206
Observed
Jul-19 @ 18:54 UTC
Wind
  • 170° at 7 KTS
Visibility
10 SM
Flight Rules
VFR
Cloud Levels
  • Broken at 4,400' AGL
Temperature
31°C / 88°F
Dewpoint
21°C / 70°F
Heat Index
34°C / 93°F
Humidity
55%
Altimeter
29.75" Hg
Pressure
1007.42 hPa
Previous

2 hours ago

KIZG 191754Z AUTO 20008KT 10SM CLR 31/20 A2977 RMK AO2 SLP079 T03060200 10311 20206 58018
Observed
Jul-19 @ 17:54 UTC
Wind
  • 200° at 8 KTS
Visibility
10 SM
Flight Rules
VFR
Cloud Levels
  • Clear skies
Temperature
31°C / 88°F
Dewpoint
20°C / 68°F
Heat Index
33°C / 92°F
Humidity
52%
Altimeter
29.77" Hg
Pressure
1008.12 hPa
Previous

3 hours ago

KIZG 191654Z AUTO 00000KT 10SM FEW038 BKN055 29/19 A2979 RMK AO2 SLP086 T02940194
Observed
Jul-19 @ 16:54 UTC
Visibility
10 SM
Flight Rules
VFR
Cloud Levels
  • Few at 3,800' AGL
  • Broken at 5,500' AGL
Temperature
29°C / 84°F
Dewpoint
19°C / 66°F
Heat Index
30°C / 86°F
Humidity
55%
Altimeter
29.79" Hg
Pressure
1008.82 hPa